Time;durP1;ratioP1;P1;durP2;ratioP2;P2;SDS_P1;SDS_P2;PMS_P1;PMS_P2;Temp;Humidity;BMP_temperature;BMP_pressure;BME280_temperature;BME280_humidity;BME280_pressure;Samples;Min_cycle;Max_cycle;Signal;HPM_P1;HPM_P2
2022/06/28 00:01:50;;;;;;;1.73;1.63;;;25.80;70.20;;;;;;5013148;28;20442;-84
2022/06/28 00:04:18;;;;;;;1.60;1.50;;;25.80;70.20;;;;;;4995726;28;20782;-84
2022/06/28 00:06:45;;;;;;;1.40;1.30;;;25.80;70.20;;;;;;5013045;28;20439;-84
2022/06/28 00:09:14;;;;;;;1.50;1.40;;;25.80;70.10;;;;;;5013251;28;20530;-83
2022/06/28 00:11:41;;;;;;;1.50;1.40;;;25.80;70.10;;;;;;5013205;28;20554;-83
2022/06/28 00:16:04;;;;;;;1.30;1.20;;;25.80;70.20;;;;;;5013042;28;20570;-83
2022/06/28 00:16:54;;;;;;;1.40;1.30;;;25.80;70.20;;;;;;5014077;28;20436;-83
2022/06/28 00:19:23;;;;;;;1.50;1.40;;;25.80;70.20;;;;;;5013123;28;20436;-83
2022/06/28 00:21:50;;;;;;;1.50;1.40;;;25.80;70.20;;;;;;5013090;28;20446;-83
2022/06/28 00:24:17;;;;;;;1.30;1.20;;;25.80;70.10;;;;;;5013041;28;20471;-83
2022/06/28 00:26:45;;;;;;;1.40;1.30;;;25.80;70.20;;;;;;5012853;28;20558;-84
2022/06/28 00:29:12;;;;;;;1.67;1.57;;;25.80;70.20;;;;;;5015826;28;20443;-84
2022/06/28 00:31:39;;;;;;;1.50;1.20;;;25.80;70.10;;;;;;5016706;28;20486;-84
2022/06/28 00:34:06;;;;;;;1.27;1.17;;;25.80;70.10;;;;;;5016516;28;20557;-84
2022/06/28 00:36:34;;;;;;;1.67;1.57;;;25.80;70.10;;;;;;5016663;28;20517;-84
2022/06/28 00:39:01;;;;;;;1.40;1.30;;;25.80;70.10;;;;;;5016648;28;20439;-84
2022/06/28 00:41:28;;;;;;;1.33;1.23;;;25.80;70.10;;;;;;5016395;28;20455;-84
2022/06/28 00:43:56;;;;;;;1.87;1.77;;;25.80;70.10;;;;;;5016550;28;20852;-84
2022/06/28 00:46:23;;;;;;;1.30;1.20;;;25.80;70.10;;;;;;5016426;28;20856;-84
2022/06/28 00:48:50;;;;;;;1.20;1.10;;;25.80;70.10;;;;;;5016358;28;20522;-84
2022/06/28 00:51:17;;;;;;;1.50;1.40;;;25.80;70.10;;;;;;5016292;28;20439;-84
2022/06/28 00:53:46;;;;;;;1.37;1.27;;;25.80;70.00;;;;;;5016234;28;20498;-84
2022/06/28 00:56:13;;;;;;;1.20;1.10;;;25.80;70.00;;;;;;5016375;28;20543;-84
2022/06/28 00:58:40;;;;;;;1.30;1.20;;;25.80;70.00;;;;;;5016282;28;20867;-84
2022/06/28 01:01:06;;;;;;;1.20;1.10;;;25.80;70.00;;;;;;5016184;28;20855;-91
2022/06/28 01:03:33;;;;;;;1.33;1.23;;;25.80;70.00;;;;;;5016006;28;20465;-85
2022/06/28 01:06:00;;;;;;;1.20;1.10;;;25.80;70.00;;;;;;5016012;28;20530;-85
2022/06/28 01:08:27;;;;;;;1.50;1.40;;;25.80;70.00;;;;;;5015986;28;20479;-83
2022/06/28 01:10:55;;;;;;;1.40;1.30;;;25.80;70.00;;;;;;5015885;28;20554;-84
2022/06/28 01:13:22;;;;;;;1.43;1.30;;;25.80;70.00;;;;;;5015912;28;20518;-83
2022/06/28 01:15:49;;;;;;;1.47;1.37;;;25.80;70.00;;;;;;5015941;28;20467;-84
2022/06/28 01:18:17;;;;;;;1.27;1.17;;;25.80;70.00;;;;;;5016015;28;20986;-82
2022/06/28 01:20:45;;;;;;;1.90;1.70;;;25.80;70.00;;;;;;5015812;28;20850;-83
2022/06/28 01:23:16;;;;;;;1.30;1.20;;;25.80;70.00;;;;;;5015791;28;20458;-84
2022/06/28 01:25:44;;;;;;;1.27;1.17;;;25.80;70.00;;;;;;5015707;28;20443;-84
2022/06/28 01:28:12;;;;;;;1.30;1.20;;;25.70;69.90;;;;;;5015483;28;20471;-84
2022/06/28 01:30:39;;;;;;;1.30;1.20;;;25.80;70.10;;;;;;5015621;28;20466;-84
2022/06/28 01:33:07;;;;;;;1.37;1.27;;;25.80;70.00;;;;;;5015454;28;20486;-84
2022/06/28 01:35:34;;;;;;;1.20;1.10;;;25.80;70.00;;;;;;5015644;28;20968;-84
2022/06/28 01:38:02;;;;;;;1.10;1.00;;;25.80;70.00;;;;;;5015621;28;20448;-84
2022/06/28 01:40:30;;;;;;;1.57;1.47;;;25.80;70.00;;;;;;5015136;28;20536;-84
2022/06/28 01:42:57;;;;;;;1.40;1.30;;;25.80;70.00;;;;;;5015308;28;20494;-84
2022/06/28 01:45:24;;;;;;;1.40;1.13;;;25.70;69.90;;;;;;5015002;28;20451;-83
2022/06/28 01:47:51;;;;;;;1.30;1.20;;;25.80;70.00;;;;;;5015284;28;20445;-84
2022/06/28 01:50:18;;;;;;;1.20;1.10;;;25.80;69.90;;;;;;5015327;28;20535;-83
2022/06/28 01:52:45;;;;;;;1.50;1.40;;;25.70;69.80;;;;;;5015130;28;20485;-84
2022/06/28 01:55:12;;;;;;;1.40;1.30;;;25.80;69.90;;;;;;5015084;28;20479;-84
2022/06/28 01:57:41;;;;;;;1.10;1.00;;;25.80;69.90;;;;;;5015129;28;20471;-84
2022/06/28 02:00:09;;;;;;;1.10;1.00;;;25.80;70.80;;;;;;5015144;28;20524;-84
2022/06/28 02:02:36;;;;;;;1.10;1.00;;;25.70;69.80;;;;;;5014930;28;20472;-84
2022/06/28 02:05:03;;;;;;;1.50;1.40;;;25.80;69.90;;;;;;5014881;28;20523;-84
2022/06/28 02:07:30;;;;;;;1.00;0.90;;;25.70;69.80;;;;;;5014997;28;20436;-84
2022/06/28 02:09:57;;;;;;;1.30;1.20;;;25.70;69.80;;;;;;5014870;28;20443;-84
2022/06/28 02:12:28;;;;;;;1.30;1.20;;;25.70;69.80;;;;;;5014875;28;20535;-84
2022/06/28 02:14:56;;;;;;;1.37;1.20;;;25.70;69.80;;;;;;5014829;28;20574;-84
2022/06/28 02:17:23;;;;;;;1.30;1.13;;;25.80;69.80;;;;;;5014715;28;20534;-84
2022/06/28 02:19:50;;;;;;;1.13;1.03;;;25.70;69.70;;;;;;5014789;28;20440;-84
2022/06/28 02:22:17;;;;;;;1.30;1.20;;;25.70;69.70;;;;;;5014726;28;20531;-84
2022/06/28 02:24:44;;;;;;;1.60;1.50;;;25.70;69.70;;;;;;5014527;28;20448;-84
2022/06/28 02:27:11;;;;;;;1.30;1.20;;;25.70;69.70;;;;;;5014329;28;20485;-84
2022/06/28 02:29:38;;;;;;;1.40;1.30;;;25.70;69.70;;;;;;5014505;28;20440;-84
2022/06/28 02:32:07;;;;;;;1.23;1.13;;;25.70;69.70;;;;;;5014559;28;20470;-84
2022/06/28 02:42:46;;;;;;;1.23;1.13;;;25.70;69.80;;;;;;5014480;28;20411;-83
2022/06/28 02:45:13;;;;;;;1.70;1.60;;;25.70;69.70;;;;;;5014147;28;20522;-82
2022/06/28 02:47:41;;;;;;;1.30;1.20;;;25.70;69.70;;;;;;5014126;28;20443;-83
2022/06/28 02:50:10;;;;;;;1.23;1.13;;;25.70;69.60;;;;;;5013765;28;20959;-84
2022/06/28 02:52:37;;;;;;;1.50;1.07;;;25.70;69.60;;;;;;5013876;28;20444;-84
2022/06/28 02:55:04;;;;;;;1.23;1.13;;;25.70;69.60;;;;;;5013966;28;20494;-84
2022/06/28 02:57:31;;;;;;;1.13;1.03;;;25.70;69.60;;;;;;5014034;28;20454;-84
2022/06/28 02:59:58;;;;;;;1.33;1.23;;;25.70;69.60;;;;;;5013894;28;20479;-84
2022/06/28 03:02:24;;;;;;;1.30;1.20;;;25.70;69.60;;;;;;5013951;28;20491;-84
2022/06/28 03:04:53;;;;;;;1.10;1.00;;;25.70;69.60;;;;;;5013830;28;21006;-84
2022/06/28 03:07:20;;;;;;;1.33;1.23;;;25.70;69.50;;;;;;5013956;28;20440;-84
2022/06/28 03:09:46;;;;;;;1.17;1.07;;;25.70;69.50;;;;;;5013798;28;20919;-84
2022/06/28 03:12:13;;;;;;;1.30;1.00;;;25.70;69.60;;;;;;5013836;28;20522;-84
2022/06/28 03:14:40;;;;;;;1.00;0.90;;;25.60;69.50;;;;;;5013705;28;21048;-84
2022/06/28 03:17:07;;;;;;;1.20;1.10;;;25.70;69.50;;;;;;5013731;28;20531;-84
2022/06/28 03:19:34;;;;;;;1.10;1.00;;;25.70;69.50;;;;;;4996160;28;20431;-84
2022/06/28 03:22:02;;;;;;;1.30;1.20;;;25.70;69.50;;;;;;5013695;28;20526;-84
2022/06/28 03:24:29;;;;;;;1.20;1.10;;;25.70;69.50;;;;;;5013515;28;20443;-84
2022/06/28 03:26:56;;;;;;;1.37;1.27;;;25.70;69.50;;;;;;5013389;28;20572;-84
2022/06/28 03:29:23;;;;;;;1.10;1.00;;;25.60;69.40;;;;;;5013564;28;20522;-84
2022/06/28 03:31:50;;;;;;;1.20;1.10;;;25.70;69.50;;;;;;5013553;28;20446;-84
2022/06/28 03:34:17;;;;;;;1.13;1.03;;;25.70;70.30;;;;;;5013403;28;20530;-85
2022/06/28 03:36:44;;;;;;;1.10;1.00;;;25.70;69.50;;;;;;5013505;28;20954;-84
2022/06/28 03:39:12;;;;;;;1.17;1.00;;;25.70;69.40;;;;;;5013482;28;20458;-84
2022/06/28 03:41:39;;;;;;;1.10;1.00;;;25.70;69.40;;;;;;5013473;28;20558;-84
2022/06/28 03:44:07;;;;;;;1.37;1.27;;;25.70;69.50;;;;;;5013362;28;20534;-84
2022/06/28 03:46:33;;;;;;;1.30;1.20;;;25.70;69.40;;;;;;5013406;28;20450;-84
2022/06/28 03:49:00;;;;;;;1.10;1.00;;;25.70;69.40;;;;;;5013287;28;20523;-84
2022/06/28 03:51:27;;;;;;;1.63;1.10;;;25.60;69.40;;;;;;5013382;28;20530;-83
2022/06/28 03:53:54;;;;;;;1.10;1.00;;;25.60;69.40;;;;;;5013284;28;20570;-83
2022/06/28 03:56:22;;;;;;;1.10;1.00;;;25.60;69.40;;;;;;5013402;28;20447;-83
2022/06/28 03:58:49;;;;;;;1.17;1.07;;;25.70;69.40;;;;;;5013289;28;21027;-83
2022/06/28 04:01:16;;;;;;;1.00;0.90;;;25.70;69.40;;;;;;5013283;28;20443;-85
2022/06/28 04:03:43;;;;;;;1.13;1.03;;;25.60;69.30;;;;;;5017078;28;20546;-84
2022/06/28 04:06:10;;;;;;;1.13;1.03;;;25.70;69.40;;;;;;5017340;28;20471;-83
2022/06/28 04:08:36;;;;;;;1.20;1.10;;;25.60;69.30;;;;;;5017090;28;20486;-83
2022/06/28 04:11:16;;;;;;;1.10;1.00;;;25.60;69.30;;;;;;5016986;28;20487;-84
2022/06/28 04:13:46;;;;;;;1.27;1.17;;;25.60;69.30;;;;;;5016950;28;20562;-83
2022/06/28 04:16:13;;;;;;;1.20;1.10;;;25.60;69.40;;;;;;5016975;28;20435;-84
2022/06/28 04:18:40;;;;;;;1.20;1.10;;;25.60;69.30;;;;;;5017008;28;20535;-84
2022/06/28 04:21:09;;;;;;;1.10;1.00;;;25.60;69.40;;;;;;5016986;28;20881;-83
2022/06/28 04:23:36;;;;;;;1.40;1.30;;;25.60;69.30;;;;;;5016971;28;20475;-83
2022/06/28 04:26:03;;;;;;;1.20;1.10;;;25.60;69.30;;;;;;5016796;28;20478;-83
2022/06/28 04:28:30;;;;;;;1.03;0.90;;;25.60;69.30;;;;;;5016680;28;20836;-84
2022/06/28 04:30:58;;;;;;;1.10;1.00;;;25.60;70.10;;;;;;5016837;28;20436;-84
2022/06/28 04:33:25;;;;;;;1.10;1.00;;;25.60;69.30;;;;;;5016791;28;20449;-83
2022/06/28 04:35:52;;;;;;;1.13;1.03;;;25.60;69.30;;;;;;5016832;28;20960;-83
2022/06/28 04:38:19;;;;;;;1.27;1.17;;;25.60;69.40;;;;;;5016603;28;20627;-83
2022/06/28 04:40:46;;;;;;;1.10;0.90;;;25.60;69.40;;;;;;5016572;28;20562;-83
2022/06/28 04:43:13;;;;;;;1.17;1.07;;;25.60;69.40;;;;;;4999153;28;20628;-84
2022/06/28 04:45:40;;;;;;;1.03;0.93;;;25.60;70.20;;;;;;5016446;28;20451;-84
2022/06/28 04:48:09;;;;;;;1.10;1.00;;;25.60;69.30;;;;;;5016595;28;20463;-84
2022/06/28 04:50:38;;;;;;;1.20;1.10;;;25.60;69.30;;;;;;5016616;28;20470;-85
2022/06/28 04:53:05;;;;;;;1.10;1.00;;;25.60;69.30;;;;;;5016437;28;20439;-83
2022/06/28 04:55:32;;;;;;;1.10;1.00;;;25.60;69.30;;;;;;5016340;28;20573;-88
2022/06/28 04:57:59;;;;;;;1.00;0.80;;;25.60;69.30;;;;;;5016345;28;20530;-83
2022/06/28 05:00:27;;;;;;;1.13;1.00;;;25.60;69.30;;;;;;5016243;28;20440;-83
2022/06/28 05:02:54;;;;;;;1.07;0.90;;;25.60;69.30;;;;;;5016147;28;20787;-83
2022/06/28 05:05:22;;;;;;;1.10;1.00;;;25.60;69.30;;;;;;5016029;28;20482;-83
2022/06/28 05:07:51;;;;;;;1.10;1.00;;;25.60;70.10;;;;;;5015965;28;20454;-83
2022/06/28 05:10:17;;;;;;;1.00;0.90;;;25.60;69.30;;;;;;5015835;28;20470;-84
2022/06/28 05:12:44;;;;;;;1.03;0.93;;;25.60;69.30;;;;;;5015882;28;20479;-84
2022/06/28 05:15:11;;;;;;;1.50;1.10;;;25.60;69.30;;;;;;5015293;28;20562;-84
2022/06/28 05:17:40;;;;;;;1.20;1.10;;;25.60;69.30;;;;;;4998396;28;20440;-84
2022/06/28 05:20:08;;;;;;;2.30;1.10;;;25.60;69.30;;;;;;5015836;28;20443;-84
2022/06/28 05:22:36;;;;;;;1.10;1.00;;;25.60;69.30;;;;;;5015895;28;20794;-84
2022/06/28 05:25:03;;;;;;;1.97;0.97;;;25.60;69.30;;;;;;5015697;28;20439;-84
2022/06/28 05:27:30;;;;;;;1.00;0.90;;;25.60;69.30;;;;;;5015390;28;20479;-84
2022/06/28 05:29:57;;;;;;;1.10;0.90;;;25.60;69.30;;;;;;5015816;28;20444;-84
2022/06/28 05:32:24;;;;;;;1.13;1.03;;;25.60;69.30;;;;;;5015615;28;20438;-84
2022/06/28 05:34:51;;;;;;;1.10;0.90;;;25.60;69.30;;;;;;5015587;28;20515;-83
2022/06/28 05:37:17;;;;;;;1.30;1.20;;;25.60;69.30;;;;;;5015567;28;20867;-83
2022/06/28 05:39:46;;;;;;;1.30;1.20;;;25.60;69.30;;;;;;4997777;28;20439;-84
2022/06/28 05:42:14;;;;;;;1.07;0.97;;;25.60;69.30;;;;;;5015467;28;20534;-84
2022/06/28 05:44:41;;;;;;;1.20;1.10;;;25.60;69.40;;;;;;5015467;28;20474;-84
2022/06/28 05:47:08;;;;;;;1.13;1.03;;;25.60;69.40;;;;;;5015359;28;20450;-84
2022/06/28 05:49:34;;;;;;;1.20;0.97;;;25.60;69.30;;;;;;5015404;28;20523;-84
2022/06/28 05:52:01;;;;;;;1.17;1.07;;;25.60;69.40;;;;;;5015324;28;20550;-84
2022/06/28 05:54:28;;;;;;;1.13;0.87;;;25.60;69.40;;;;;;5015170;28;21046;-84
2022/06/28 05:56:56;;;;;;;1.03;0.90;;;25.60;69.30;;;;;;5015194;28;20440;-84
2022/06/28 05:59:24;;;;;;;1.30;1.20;;;25.60;69.30;;;;;;5015229;28;20449;-85
2022/06/28 06:01:51;;;;;;;1.00;0.90;;;25.50;69.30;;;;;;5014937;28;20444;-84
2022/06/28 06:04:18;;;;;;;1.10;1.00;;;25.60;69.30;;;;;;5014911;28;20479;-84
2022/06/28 06:06:45;;;;;;;1.17;0.97;;;25.60;69.30;;;;;;5014932;28;20455;-84
2022/06/28 06:09:12;;;;;;;1.10;1.00;;;25.60;69.30;;;;;;5015044;28;20443;-84
2022/06/28 06:11:39;;;;;;;1.03;0.93;;;25.60;69.30;;;;;;4997201;28;20553;-84
2022/06/28 06:14:10;;;;;;;1.30;0.93;;;25.60;69.30;;;;;;5014789;28;20483;-84
2022/06/28 06:16:37;;;;;;;1.00;0.90;;;25.60;69.30;;;;;;5014785;28;20446;-85
2022/06/28 06:19:04;;;;;;;1.10;0.90;;;25.60;69.30;;;;;;4997414;28;20431;-85
2022/06/28 06:21:31;;;;;;;1.10;1.00;;;25.60;69.40;;;;;;5014722;28;20463;-84
2022/06/28 06:23:58;;;;;;;1.70;0.97;;;25.60;69.30;;;;;;5014589;28;20435;-85
2022/06/28 06:26:24;;;;;;;1.20;0.87;;;25.60;69.30;;;;;;5013437;28;20439;-84
2022/06/28 06:28:51;;;;;;;1.03;0.93;;;25.60;69.30;;;;;;5014649;28;20483;-85
2022/06/28 06:31:19;;;;;;;1.27;1.17;;;25.60;69.40;;;;;;5014396;28;20518;-84
2022/06/28 06:33:46;;;;;;;1.07;0.97;;;25.60;69.40;;;;;;5014566;28;20862;-84
2022/06/28 06:36:13;;;;;;;1.20;1.10;;;25.60;69.30;;;;;;5014350;28;20486;-90
2022/06/28 06:38:40;;;;;;;1.00;0.90;;;25.60;69.30;;;;;;5014447;28;20531;-83
2022/06/28 06:41:07;;;;;;;1.07;0.90;;;25.60;70.10;;;;;;5014155;28;20922;-84
2022/06/28 06:43:34;;;;;;;1.10;1.00;;;25.60;70.10;;;;;;5014348;28;20526;-84
2022/06/28 06:46:01;;;;;;;1.13;1.00;;;25.60;69.30;;;;;;5014372;28;20447;-84
2022/06/28 06:48:29;;;;;;;1.20;1.10;;;25.60;69.30;;;;;;5014236;28;20470;-84
2022/06/28 06:50:56;;;;;;;1.10;1.00;;;25.60;69.30;;;;;;5014207;28;20471;-91
2022/06/28 06:53:23;;;;;;;1.10;1.00;;;25.60;69.30;;;;;;5014247;28;20531;-85
2022/06/28 06:55:50;;;;;;;1.00;0.90;;;25.60;69.20;;;;;;5013918;28;20483;-83
2022/06/28 06:58:17;;;;;;;1.30;0.90;;;25.60;69.30;;;;;;5014101;28;20538;-84
2022/06/28 07:00:44;;;;;;;1.00;0.80;;;25.60;69.20;;;;;;5013743;28;20861;-84
2022/06/28 07:03:11;;;;;;;1.10;0.90;;;25.60;69.20;;;;;;5014059;28;20863;-84
2022/06/28 07:05:39;;;;;;;1.53;1.00;;;25.60;69.20;;;;;;5013814;28;20526;-83
2022/06/28 07:08:06;;;;;;;0.90;0.80;;;25.60;69.30;;;;;;5013799;28;20439;-84
2022/06/28 07:10:33;;;;;;;1.20;1.10;;;25.60;69.30;;;;;;5013918;28;20491;-83
2022/06/28 07:13:01;;;;;;;1.30;1.00;;;25.60;69.30;;;;;;5013939;28;20526;-83
2022/06/28 07:15:27;;;;;;;1.23;1.13;;;25.60;69.20;;;;;;5013789;28;20898;-83
2022/06/28 07:17:54;;;;;;;1.33;1.00;;;25.60;69.20;;;;;;5013747;28;20535;-84
2022/06/28 07:20:21;;;;;;;0.90;0.80;;;25.60;69.20;;;;;;5013658;28;20450;-83
2022/06/28 07:22:49;;;;;;;1.10;0.90;;;25.60;69.30;;;;;;5013763;28;20502;-83
2022/06/28 07:25:16;;;;;;;1.30;0.90;;;25.60;69.20;;;;;;5013572;28;20534;-83
2022/06/28 07:27:43;;;;;;;1.00;0.90;;;25.60;69.20;;;;;;5013338;28;20898;-84
2022/06/28 07:30:11;;;;;;;1.10;1.00;;;25.60;69.20;;;;;;5013493;28;20479;-84
2022/06/28 07:32:38;;;;;;;1.03;0.93;;;25.60;69.20;;;;;;5013246;28;20475;-83
2022/06/28 07:35:06;;;;;;;1.20;0.90;;;25.60;69.10;;;;;;5013484;28;20475;-83
2022/06/28 07:37:33;;;;;;;1.20;0.97;;;25.60;69.10;;;;;;5013073;28;20821;-85
2022/06/28 07:40:01;;;;;;;1.10;1.00;;;25.60;69.10;;;;;;5013519;28;20558;-83
2022/06/28 07:42:28;;;;;;;1.10;0.90;;;25.60;69.10;;;;;;5013299;28;20446;-83
2022/06/28 07:44:55;;;;;;;1.00;0.80;;;25.60;69.10;;;;;;5013333;28;20444;-84
2022/06/28 07:47:22;;;;;;;1.00;0.90;;;25.60;69.10;;;;;;5013329;28;20478;-84
2022/06/28 07:52:36;;;;;;;1.10;0.90;;;25.60;69.10;;;;;;5013605;28;20501;-84
2022/06/28 07:55:07;;;;;;;1.10;0.93;;;25.60;69.20;;;;;;5014053;28;21024;-84
2022/06/28 07:57:34;;;;;;;1.30;1.00;;;25.60;69.20;;;;;;5015195;28;20443;-84
2022/06/28 08:00:01;;;;;;;1.10;0.83;;;25.60;69.10;;;;;;5015238;28;20444;-84
2022/06/28 08:02:29;;;;;;;1.00;0.80;;;25.60;69.20;;;;;;5015967;28;20849;-82
2022/06/28 08:04:56;;;;;;;1.63;1.00;;;25.60;69.10;;;;;;5013242;28;20463;-84
2022/06/28 08:07:23;;;;;;;1.40;0.93;;;25.60;69.10;;;;;;5013420;28;20470;-83
2022/06/28 08:09:50;;;;;;;1.00;0.90;;;25.60;69.20;;;;;;5012930;28;21116;-84
2022/06/28 08:12:18;;;;;;;1.10;1.00;;;25.60;69.10;;;;;;5013062;28;20924;-83
2022/06/28 08:14:45;;;;;;;1.13;0.90;;;25.60;69.10;;;;;;5013112;28;20562;-84
2022/06/28 08:17:12;;;;;;;1.00;0.87;;;25.60;69.10;;;;;;5013059;28;20534;-83
2022/06/28 08:19:39;;;;;;;1.10;1.00;;;25.60;69.10;;;;;;5013083;28;20483;-83
2022/06/28 08:22:06;;;;;;;1.00;0.87;;;25.60;69.10;;;;;;5013125;28;20466;-83
2022/06/28 08:24:33;;;;;;;1.07;0.80;;;25.60;69.10;;;;;;5013016;28;20458;-83
2022/06/28 08:26:59;;;;;;;1.00;0.90;;;25.60;69.00;;;;;;5012780;28;20503;-84
2022/06/28 08:29:30;;;;;;;0.90;0.80;;;25.60;69.00;;;;;;5012882;28;20526;-84
2022/06/28 08:31:57;;;;;;;1.10;0.90;;;25.60;69.00;;;;;;5013065;28;20513;-84
2022/06/28 08:34:24;;;;;;;1.10;0.90;;;25.60;69.00;;;;;;5012818;28;20514;-84
2022/06/28 08:36:51;;;;;;;1.17;0.97;;;25.70;69.00;;;;;;5012809;28;20495;-84
2022/06/28 08:39:18;;;;;;;1.20;1.10;;;25.60;68.90;;;;;;5012961;28;20523;-84
2022/06/28 08:41:46;;;;;;;1.00;0.80;;;25.60;68.80;;;;;;5012828;28;20547;-84
2022/06/28 08:44:14;;;;;;;1.00;0.80;;;25.60;68.90;;;;;;5012833;28;20444;-84
2022/06/28 08:46:43;;;;;;;1.07;0.90;;;25.70;69.00;;;;;;5012974;28;20820;-84
2022/06/28 08:49:14;;;;;;;1.00;0.77;;;25.70;68.90;;;;;;5014082;28;20861;-85
2022/06/28 08:51:42;;;;;;;1.20;0.90;;;25.70;68.90;;;;;;5016520;28;20475;-83
2022/06/28 08:54:09;;;;;;;1.20;1.10;;;25.70;69.80;;;;;;5016351;28;20446;-83
2022/06/28 08:56:38;;;;;;;1.20;0.90;;;25.70;68.90;;;;;;5016140;28;20487;-83
2022/06/28 08:59:07;;;;;;;1.00;0.90;;;25.60;68.80;;;;;;5016350;28;20451;-83
2022/06/28 09:01:35;;;;;;;1.00;0.90;;;25.70;68.80;;;;;;5016234;28;20447;-84
2022/06/28 09:04:05;;;;;;;1.00;0.80;;;25.70;68.80;;;;;;5016070;28;20530;-83
2022/06/28 09:06:32;;;;;;;1.03;0.90;;;25.70;68.90;;;;;;5016100;28;20450;-84
2022/06/28 09:08:59;;;;;;;1.00;0.90;;;25.60;68.70;;;;;;5016160;28;20439;-83
2022/06/28 09:11:25;;;;;;;1.20;1.00;;;25.70;68.70;;;;;;5015764;28;20982;-83
2022/06/28 09:13:52;;;;;;;1.63;0.80;;;25.70;68.80;;;;;;5015912;28;20530;-83
2022/06/28 09:16:20;;;;;;;1.20;1.10;;;25.70;68.70;;;;;;5016030;28;20487;-83
2022/06/28 09:18:48;;;;;;;0.93;0.80;;;25.70;68.70;;;;;;5015919;28;20446;-84
2022/06/28 09:21:19;;;;;;;1.10;0.90;;;25.70;68.80;;;;;;5015706;28;20582;-84
2022/06/28 09:23:47;;;;;;;1.00;0.90;;;25.70;68.80;;;;;;5015810;28;20443;-83
2022/06/28 09:26:16;;;;;;;1.30;1.00;;;25.70;68.80;;;;;;5015706;28;21029;-84
2022/06/28 09:28:45;;;;;;;1.00;0.90;;;25.70;69.00;;;;;;5015679;28;20530;-83
2022/06/28 09:31:15;;;;;;;1.60;0.70;;;25.70;68.80;;;;;;5015529;28;20435;-83
2022/06/28 09:33:42;;;;;;;1.10;0.90;;;25.70;68.80;;;;;;5015570;28;20527;-83
2022/06/28 09:36:11;;;;;;;1.47;1.03;;;25.70;68.80;;;;;;5015600;28;20574;-84
2022/06/28 09:38:40;;;;;;;1.10;1.00;;;25.70;68.80;;;;;;5015542;28;20957;-83
2022/06/28 09:41:20;;;;;;;1.10;0.97;;;25.70;68.80;;;;;;5015343;28;20470;-83
2022/06/28 09:43:55;;;;;;;1.00;0.90;;;25.70;68.80;;;;;;5015371;28;20443;-83
2022/06/28 09:46:23;;;;;;;1.00;0.80;;;25.70;68.80;;;;;;5015434;28;20474;-84
2022/06/28 09:48:52;;;;;;;1.10;0.90;;;25.70;68.80;;;;;;5015527;28;20447;-84
2022/06/28 09:51:22;;;;;;;1.10;1.00;;;25.70;68.80;;;;;;5015168;28;20522;-84
2022/06/28 09:53:53;;;;;;;1.00;0.80;;;25.70;68.90;;;;;;5015389;28;20942;-84
2022/06/28 09:56:22;;;;;;;1.10;1.00;;;25.70;68.80;;;;;;5015028;28;20579;-84
2022/06/28 09:58:49;;;;;;;1.10;0.80;;;25.70;68.90;;;;;;5015256;28;20538;-83
2022/06/28 10:01:17;;;;;;;1.37;0.80;;;25.70;68.80;;;;;;5015010;28;20446;-84
2022/06/28 10:03:44;;;;;;;1.00;0.90;;;25.70;68.80;;;;;;5014980;28;20526;-84
2022/06/28 10:06:11;;;;;;;1.00;0.80;;;25.70;68.90;;;;;;4997864;28;20859;-89
2022/06/28 10:08:40;;;;;;;0.97;0.80;;;25.70;68.90;;;;;;5015083;28;20507;-83
2022/06/28 10:11:10;;;;;;;1.00;0.70;;;25.70;68.80;;;;;;5014937;28;20562;-84
2022/06/28 10:16:36;;;;;;;1.00;0.87;;;25.70;68.80;;;;;;5015012;28;20984;-84
2022/06/28 10:19:05;;;;;;;1.00;0.80;;;25.70;69.00;;;;;;5015059;28;20448;-84
2022/06/28 10:22:08;;;;;;;1.00;0.90;;;25.70;68.90;;;;;;5014754;28;20444;-84
2022/06/28 10:24:55;;;;;;;1.10;0.90;;;25.70;68.80;;;;;;5014788;28;20811;-84
2022/06/28 10:27:24;;;;;;;1.00;0.80;;;25.70;68.80;;;;;;5014484;28;20583;-84
2022/06/28 10:30:18;;;;;;;1.20;0.87;;;25.60;68.90;;;;;;5014670;28;20526;-84
2022/06/28 10:32:47;;;;;;;0.90;0.60;;;25.70;68.90;;;;;;5001130;28;20531;-84
2022/06/28 10:36:01;;;;;;;1.00;0.80;;;25.70;69.00;;;;;;5014428;28;20468;-84
2022/06/28 10:38:28;;;;;;;1.20;0.90;;;25.70;68.90;;;;;;5014626;28;20535;-84
2022/06/28 10:40:56;;;;;;;1.10;0.87;;;25.60;68.90;;;;;;5014511;28;20464;-91
2022/06/28 10:43:46;;;;;;;1.10;1.00;;;25.70;69.00;;;;;;5014326;28;20475;-84
2022/06/28 10:46:14;;;;;;;1.00;0.90;;;25.70;68.90;;;;;;5014173;28;20435;-83
2022/06/28 10:49:06;;;;;;;1.60;0.80;;;25.60;68.90;;;;;;5014276;28;21010;-83
2022/06/28 10:51:36;;;;;;;1.13;1.03;;;25.70;68.90;;;;;;5014163;28;20450;-83
2022/06/28 10:54:06;;;;;;;1.00;0.80;;;25.70;69.00;;;;;;5014306;28;20447;-83
2022/06/28 10:56:47;;;;;;;1.10;0.80;;;25.70;69.00;;;;;;5014066;28;20494;-84
2022/06/28 10:59:17;;;;;;;1.03;0.93;;;25.70;68.90;;;;;;5014098;28;20451;-83
2022/06/28 11:01:55;;;;;;;1.77;0.87;;;25.70;68.90;;;;;;5013874;28;20803;-83
2022/06/28 11:04:27;;;;;;;1.00;0.90;;;25.70;68.80;;;;;;5013803;28;20799;-84
2022/06/28 11:06:56;;;;;;;1.17;0.90;;;25.70;68.90;;;;;;5014086;28;20563;-84
2022/06/28 11:09:34;;;;;;;1.07;0.90;;;25.70;68.90;;;;;;5013758;28;20527;-84
2022/06/28 11:12:12;;;;;;;1.03;0.90;;;25.70;68.80;;;;;;5013306;28;20526;-84
2022/06/28 11:14:49;;;;;;;1.00;0.80;;;25.70;68.80;;;;;;5013922;28;20451;-84
2022/06/28 11:17:18;;;;;;;0.90;0.70;;;25.70;68.80;;;;;;5013748;28;20574;-84
2022/06/28 11:19:53;;;;;;;1.10;0.90;;;25.70;68.90;;;;;;5013519;28;20535;-85
2022/06/28 11:22:25;;;;;;;1.00;0.70;;;25.70;68.80;;;;;;5013677;28;20450;-84
2022/06/28 11:24:53;;;;;;;1.00;0.80;;;25.70;68.90;;;;;;5013682;28;20534;-84
2022/06/28 11:27:24;;;;;;;0.90;0.70;;;25.70;68.80;;;;;;5013515;28;20596;-84
2022/06/28 11:29:55;;;;;;;0.93;0.80;;;25.70;68.80;;;;;;5013753;28;20447;-84
2022/06/28 11:32:24;;;;;;;1.93;0.80;;;25.70;69.70;;;;;;5013558;28;20447;-84
2022/06/28 11:34:59;;;;;;;1.00;0.83;;;25.70;68.80;;;;;;5013566;28;20446;-84
2022/06/28 11:37:26;;;;;;;1.10;0.83;;;25.80;68.80;;;;;;5013489;28;20838;-84
2022/06/28 11:39:59;;;;;;;1.23;1.00;;;25.70;68.70;;;;;;5013352;28;20486;-84
2022/06/28 11:42:27;;;;;;;1.00;0.70;;;25.80;68.80;;;;;;5013407;28;20447;-84
2022/06/28 11:44:57;;;;;;;1.00;0.90;;;25.70;68.70;;;;;;5013243;28;20538;-84
2022/06/28 11:47:24;;;;;;;1.10;0.83;;;25.70;68.70;;;;;;5013378;28;20522;-84
2022/06/28 11:50:08;;;;;;;1.00;0.90;;;25.70;68.70;;;;;;5013430;28;20462;-84
2022/06/28 11:52:36;;;;;;;0.90;0.70;;;25.80;69.60;;;;;;5013134;28;20443;-84
2022/06/28 11:55:04;;;;;;;1.10;0.87;;;25.70;68.70;;;;;;5013426;28;20443;-84
2022/06/28 11:57:31;;;;;;;1.00;0.80;;;25.70;68.70;;;;;;5013261;28;20570;-84
2022/06/28 12:00:02;;;;;;;1.30;0.90;;;25.70;68.70;;;;;;5013317;28;20443;-84
2022/06/28 12:02:51;;;;;;;1.00;0.80;;;25.80;68.70;;;;;;5013262;28;20443;-84
2022/06/28 12:05:30;;;;;;;1.40;1.00;;;25.80;68.70;;;;;;5013100;28;20534;-84
2022/06/28 12:07:57;;;;;;;1.00;0.80;;;25.80;68.80;;;;;;5013450;28;20787;-84
2022/06/28 12:10:26;;;;;;;1.00;0.70;;;25.70;68.70;;;;;;5012935;28;20546;-84
2022/06/28 12:12:53;;;;;;;1.33;0.90;;;25.70;68.70;;;;;;5013137;28;20546;-84
2022/06/28 12:15:30;;;;;;;1.00;0.90;;;25.80;68.80;;;;;;5013177;28;21004;-84
2022/06/28 12:18:01;;;;;;;1.20;1.00;;;25.80;68.70;;;;;;5013101;28;20510;-84
2022/06/28 12:20:29;;;;;;;1.13;0.90;;;25.70;68.70;;;;;;5013181;28;20451;-84
2022/06/28 12:22:57;;;;;;;1.00;0.77;;;25.70;68.70;;;;;;5013093;28;20870;-84
2022/06/28 12:25:24;;;;;;;1.10;0.70;;;25.80;68.80;;;;;;5016167;28;20946;-85
2022/06/28 12:27:51;;;;;;;1.00;0.60;;;25.80;68.80;;;;;;5016761;28;20490;-84
2022/06/28 12:30:18;;;;;;;1.10;0.80;;;25.80;68.80;;;;;;5016680;28;20447;-84
2022/06/28 12:32:46;;;;;;;1.00;0.80;;;25.70;68.60;;;;;;5016884;28;20443;-84
2022/06/28 12:35:14;;;;;;;1.10;0.90;;;25.80;69.50;;;;;;5016812;28;20857;-85
2022/06/28 12:37:42;;;;;;;1.00;0.70;;;25.70;68.60;;;;;;5016669;28;20515;-85
2022/06/28 12:40:10;;;;;;;1.00;0.80;;;25.70;69.40;;;;;;5016568;28;20542;-84
2022/06/28 12:42:37;;;;;;;1.20;0.80;;;25.70;68.60;;;;;;5016352;28;20982;-84
2022/06/28 12:45:05;;;;;;;1.83;0.90;;;25.80;68.70;;;;;;5016489;28;20531;-84
2022/06/28 12:47:34;;;;;;;0.90;0.80;;;25.80;68.70;;;;;;5016585;28;20440;-84
2022/06/28 12:50:05;;;;;;;1.00;0.80;;;25.80;68.70;;;;;;5016541;28;20534;-84
2022/06/28 12:52:33;;;;;;;0.90;0.70;;;25.80;68.70;;;;;;5016462;28;20444;-84
2022/06/28 12:55:00;;;;;;;0.90;0.70;;;25.80;68.70;;;;;;5016504;28;20444;-84
2022/06/28 12:57:27;;;;;;;1.77;0.90;;;25.80;68.70;;;;;;5016288;28;20569;-84
2022/06/28 12:59:55;;;;;;;1.00;0.70;;;25.80;68.60;;;;;;5016399;28;20463;-84
2022/06/28 13:02:22;;;;;;;1.30;0.90;;;25.80;68.60;;;;;;5016289;28;20800;-84
2022/06/28 13:04:50;;;;;;;0.90;0.70;;;25.80;68.60;;;;;;5016120;28;20450;-84
2022/06/28 13:07:20;;;;;;;1.00;0.80;;;25.70;68.50;;;;;;5016240;28;20486;-84
2022/06/28 13:09:47;;;;;;;0.90;0.80;;;25.80;68.60;;;;;;5016000;28;20471;-84